createdAt,value
2023-12-05T00:00:29.724Z,82.74
2023-12-05T00:02:56.327Z,82.81
2023-12-05T00:05:23.002Z,82.71
2023-12-05T00:07:49.799Z,82.73
2023-12-05T00:10:16.521Z,82.45
2023-12-05T00:12:43.523Z,82.69
2023-12-05T00:15:10.233Z,82.80
2023-12-05T00:17:36.934Z,82.45
2023-12-05T00:20:04.422Z,82.36
2023-12-05T00:22:31.161Z,82.61
2023-12-05T00:24:58.049Z,82.64
2023-12-05T00:27:24.724Z,82.24
2023-12-05T00:29:51.330Z,82.58
2023-12-05T00:32:18.004Z,83.02
2023-12-05T00:34:47.687Z,82.33
2023-12-05T00:37:14.455Z,82.67
2023-12-05T00:39:41.351Z,83.04
2023-12-05T00:42:08.913Z,82.62
2023-12-05T00:44:35.547Z,82.63
2023-12-05T00:47:04.693Z,82.62
2023-12-05T00:49:31.508Z,82.50
2023-12-05T00:51:58.189Z,82.49
2023-12-05T00:54:25.031Z,82.18
2023-12-05T00:56:51.629Z,82.24
2023-12-05T00:59:18.401Z,82.17
2023-12-05T01:01:45.112Z,82.20
2023-12-05T01:04:11.885Z,82.25
2023-12-05T01:06:38.635Z,82.24
2023-12-05T01:09:07.722Z,82.21
2023-12-05T01:11:34.499Z,82.12
2023-12-05T01:14:01.127Z,82.32
2023-12-05T01:16:27.759Z,82.14
2023-12-05T01:18:54.646Z,82.42
2023-12-05T01:21:21.863Z,82.28
2023-12-05T01:23:48.468Z,82.21
2023-12-05T01:26:15.285Z,82.15
2023-12-05T01:28:41.880Z,82.52
2023-12-05T01:31:08.609Z,82.59
2023-12-05T01:33:35.314Z,82.35
2023-12-05T01:36:01.953Z,82.48
2023-12-05T01:38:28.549Z,82.36
2023-12-05T01:40:56.025Z,82.22
2023-12-05T01:43:22.954Z,81.92
2023-12-05T01:45:49.758Z,82.15
2023-12-05T01:48:17.276Z,82.57
2023-12-05T01:50:44.765Z,81.92
2023-12-05T01:53:13.554Z,82.02
2023-12-05T01:55:40.248Z,82.32
2023-12-05T01:58:09.115Z,82.42
2023-12-05T02:00:39.172Z,82.45
2023-12-05T02:03:05.904Z,81.87
2023-12-05T02:05:33.452Z,82.42
2023-12-05T02:08:00.734Z,82.07
2023-12-05T02:10:27.333Z,81.90
2023-12-05T02:12:53.920Z,82.34
2023-12-05T02:15:20.960Z,82.52
2023-12-05T02:18:14.007Z,81.84
2023-12-05T02:20:56.839Z,82.06
2023-12-05T02:23:51.763Z,82.00
2023-12-05T02:26:36.432Z,81.59
2023-12-05T02:29:03.863Z,81.86
2023-12-05T02:31:30.445Z,81.56
2023-12-05T02:33:57.159Z,81.74
2023-12-05T02:36:34.311Z,82.48
2023-12-05T02:39:15.630Z,81.70
2023-12-05T02:41:46.606Z,82.19
2023-12-05T02:44:16.860Z,82.17
2023-12-05T02:46:45.252Z,81.61
2023-12-05T02:49:12.930Z,82.40
2023-12-05T02:51:41.124Z,81.67
2023-12-05T02:54:08.166Z,82.21
2023-12-05T02:56:36.664Z,81.26
2023-12-05T02:59:04.256Z,82.19
2023-12-05T03:01:31.404Z,81.99
2023-12-05T03:03:58.129Z,82.29
2023-12-05T03:06:25.592Z,81.50
2023-12-05T03:08:52.285Z,81.35
2023-12-05T03:11:18.848Z,82.11
2023-12-05T03:13:45.437Z,81.99
2023-12-05T03:16:12.072Z,81.26
2023-12-05T03:18:38.875Z,82.11
2023-12-05T03:21:06.390Z,81.94
2023-12-05T03:23:33.008Z,81.28
2023-12-05T03:25:59.884Z,82.04
2023-12-05T03:28:26.484Z,82.36
2023-12-05T03:30:53.354Z,82.04
2023-12-05T03:33:20.070Z,81.43
2023-12-05T03:35:46.810Z,81.56
2023-12-05T03:38:13.425Z,81.29
2023-12-05T03:40:40.024Z,80.87
2023-12-05T03:43:06.780Z,82.36
2023-12-05T03:45:33.433Z,81.36
2023-12-05T03:48:00.250Z,81.28
2023-12-05T03:50:26.884Z,81.33
2023-12-05T03:52:53.511Z,81.28
2023-12-05T03:55:20.125Z,81.32
2023-12-05T03:57:46.774Z,81.30
2023-12-05T04:00:13.904Z,81.20
2023-12-05T04:02:42.933Z,80.77
2023-12-05T04:05:10.748Z,82.02
2023-12-05T04:07:37.571Z,81.94
2023-12-05T04:10:04.718Z,81.54
2023-12-05T04:12:31.381Z,81.07
2023-12-05T04:14:58.123Z,80.99
2023-12-05T04:17:24.722Z,80.60
2023-12-05T04:19:52.273Z,81.42
2023-12-05T04:22:19.756Z,80.81
2023-12-05T04:24:46.402Z,82.08
2023-12-05T04:27:13.195Z,80.65
2023-12-05T04:29:39.821Z,81.00
2023-12-05T04:32:07.812Z,81.36
2023-12-05T04:34:35.801Z,81.26
2023-12-05T04:37:02.471Z,80.57
2023-12-05T04:39:29.114Z,81.01
2023-12-05T04:41:56.165Z,80.86
2023-12-05T04:44:23.009Z,80.83
2023-12-05T04:46:49.668Z,81.15
2023-12-05T04:49:16.375Z,81.51
2023-12-05T04:51:44.340Z,81.25
2023-12-05T04:54:11.868Z,81.07
2023-12-05T04:56:38.481Z,80.74
2023-12-05T04:59:05.259Z,81.74
2023-12-05T05:01:32.006Z,81.03
2023-12-05T05:04:02.463Z,81.44
2023-12-05T05:06:31.867Z,81.37
2023-12-05T05:08:58.730Z,81.70
2023-12-05T05:11:25.331Z,81.12
2023-12-05T05:13:57.981Z,80.71
2023-12-05T05:16:26.977Z,81.32
2023-12-05T05:18:54.229Z,80.42
2023-12-05T05:21:21.094Z,80.62
2023-12-05T05:23:47.812Z,80.31
2023-12-05T05:26:15.619Z,80.52
2023-12-05T05:28:42.552Z,81.24
2023-12-05T05:31:09.225Z,80.19
2023-12-05T05:33:36.013Z,81.44
2023-12-05T05:36:02.850Z,81.38
2023-12-05T05:38:29.451Z,81.48
2023-12-05T05:41:07.652Z,81.25
2023-12-05T05:43:34.789Z,80.19
2023-12-05T05:46:01.983Z,80.10
2023-12-05T05:48:29.163Z,80.25
2023-12-05T05:50:56.390Z,80.78
2023-12-05T05:53:23.097Z,80.79
2023-12-05T05:55:49.974Z,80.17
2023-12-05T05:58:16.572Z,80.66
2023-12-05T06:00:43.270Z,81.50
2023-12-05T06:03:10.207Z,80.67
2023-12-05T06:05:37.294Z,81.36
2023-12-05T06:08:04.363Z,81.04
2023-12-05T06:10:30.985Z,81.02
2023-12-05T06:12:57.757Z,81.03
2023-12-05T06:15:24.489Z,80.64
2023-12-05T06:17:51.264Z,80.91
2023-12-05T06:20:18.363Z,80.20
2023-12-05T06:22:45.028Z,80.46
2023-12-05T06:25:11.729Z,80.78
2023-12-05T06:27:38.447Z,80.87
2023-12-05T06:30:13.285Z,81.07
2023-12-05T06:32:47.811Z,80.24
2023-12-05T06:35:14.502Z,81.12
2023-12-05T06:37:41.248Z,81.00
2023-12-05T06:40:08.510Z,80.83
2023-12-05T06:42:35.859Z,81.01
2023-12-05T06:45:03.969Z,80.55
2023-12-05T06:47:32.114Z,80.19
2023-12-05T06:50:02.895Z,80.48
2023-12-05T06:52:29.633Z,80.62
2023-12-05T06:54:56.549Z,80.87
2023-12-05T06:57:23.929Z,80.73
2023-12-05T06:59:51.141Z,79.84
2023-12-05T07:02:18.358Z,81.03
2023-12-05T07:04:45.312Z,80.47
2023-12-05T07:07:12.216Z,80.91
2023-12-05T07:09:38.903Z,80.31
2023-12-05T07:12:06.425Z,80.85
2023-12-05T07:14:36.534Z,80.48
2023-12-05T07:17:03.748Z,80.21
2023-12-05T07:19:30.568Z,79.81
2023-12-05T07:21:57.273Z,80.50
2023-12-05T07:24:24.133Z,79.92
2023-12-05T07:26:50.981Z,80.48
2023-12-05T07:29:17.733Z,79.89
2023-12-05T07:31:44.352Z,80.80
2023-12-05T07:34:11.110Z,79.90
2023-12-05T07:36:42.539Z,80.55
2023-12-05T07:39:14.034Z,79.67
2023-12-05T07:41:41.621Z,79.97
2023-12-05T07:44:08.433Z,80.10
2023-12-05T07:46:35.352Z,80.22
2023-12-05T07:49:03.981Z,80.63
2023-12-05T07:51:31.125Z,80.13
2023-12-05T07:53:58.078Z,80.25
2023-12-05T07:56:26.127Z,80.58
2023-12-05T07:58:52.864Z,80.30
2023-12-05T08:01:19.563Z,79.57
2023-12-05T08:03:46.394Z,79.54
2023-12-05T08:06:13.567Z,80.57
2023-12-05T08:08:40.324Z,80.27
2023-12-05T08:11:07.484Z,80.42
2023-12-05T08:13:34.108Z,79.79
2023-12-05T08:16:00.766Z,79.75
2023-12-05T08:18:27.844Z,80.16
2023-12-05T08:20:54.646Z,79.88
2023-12-05T08:23:22.304Z,80.37
2023-12-05T08:25:48.981Z,79.75
2023-12-05T08:28:15.631Z,80.10
2023-12-05T08:30:42.813Z,80.43
2023-12-05T08:33:10.501Z,80.47
2023-12-05T08:35:37.361Z,80.26
2023-12-05T08:38:04.386Z,80.02
2023-12-05T08:40:30.990Z,79.85
2023-12-05T08:42:57.779Z,80.50
2023-12-05T08:45:25.486Z,80.89
2023-12-05T08:47:55.508Z,79.82
2023-12-05T08:50:22.702Z,79.62
2023-12-05T08:52:49.633Z,79.61
2023-12-05T08:55:16.499Z,79.89
2023-12-05T08:57:43.474Z,80.47
2023-12-05T09:00:10.693Z,79.96
2023-12-05T09:02:37.566Z,79.71
2023-12-05T09:05:05.121Z,79.94
2023-12-05T09:07:32.644Z,79.80
2023-12-05T09:09:59.550Z,79.40
2023-12-05T09:12:26.390Z,80.36
2023-12-05T09:14:53.123Z,80.17
2023-12-05T09:17:20.054Z,80.38
2023-12-05T09:19:46.888Z,80.01
2023-12-05T09:22:13.671Z,79.52
2023-12-05T09:24:40.356Z,80.31
2023-12-05T09:27:07.218Z,79.59
2023-12-05T09:29:33.915Z,79.74
2023-12-05T09:32:00.561Z,80.29
2023-12-05T09:34:27.298Z,80.44
2023-12-05T09:36:54.062Z,80.40
2023-12-05T09:39:21.067Z,80.13
2023-12-05T09:41:51.972Z,80.62
2023-12-05T09:44:25.039Z,80.19
2023-12-05T09:46:57.600Z,80.21
2023-12-05T09:49:28.340Z,79.48
2023-12-05T09:51:55.483Z,80.43
2023-12-05T09:54:25.301Z,79.68
2023-12-05T09:56:55.076Z,80.62
2023-12-05T09:59:24.151Z,79.95
2023-12-05T10:01:56.734Z,80.19
2023-12-05T10:04:23.737Z,79.91
2023-12-05T10:06:52.742Z,80.13
2023-12-05T10:09:22.680Z,80.32
2023-12-05T10:11:50.831Z,80.07
2023-12-05T10:14:17.645Z,80.74
2023-12-05T10:16:45.724Z,79.85
2023-12-05T10:19:13.895Z,80.21
2023-12-05T10:21:40.702Z,80.21
2023-12-05T10:24:07.398Z,80.66
2023-12-05T10:26:45.075Z,80.61
2023-12-05T10:29:11.828Z,80.24
2023-12-05T10:31:38.738Z,79.88
2023-12-05T10:34:08.847Z,79.94
2023-12-05T10:36:39.076Z,79.58
2023-12-05T10:39:08.337Z,79.68
2023-12-05T10:41:34.990Z,80.81
2023-12-05T10:44:04.049Z,81.02
2023-12-05T10:46:30.908Z,79.94
2023-12-05T10:48:57.671Z,80.48
2023-12-05T10:51:28.656Z,80.34
2023-12-05T10:53:56.997Z,80.38
2023-12-05T10:56:25.040Z,79.93
2023-12-05T10:58:54.261Z,79.65
2023-12-05T11:01:23.157Z,80.88
2023-12-05T11:03:51.725Z,80.33
2023-12-05T11:06:18.836Z,80.18
2023-12-05T11:08:46.063Z,80.44
2023-12-05T11:11:14.482Z,80.62
2023-12-05T11:13:42.757Z,79.90
2023-12-05T11:16:36.507Z,79.96
2023-12-05T11:19:38.310Z,80.61
2023-12-05T11:22:24.048Z,80.27
2023-12-05T11:25:32.537Z,80.68
2023-12-05T11:28:20.709Z,80.01
2023-12-05T11:30:59.634Z,80.24
2023-12-05T11:34:16.946Z,80.54
2023-12-05T11:37:02.048Z,80.74
2023-12-05T11:39:30.666Z,80.39
2023-12-05T11:42:15.352Z,80.55
2023-12-05T11:44:44.591Z,79.59
2023-12-05T11:47:38.421Z,79.70
2023-12-05T11:50:06.457Z,80.52
2023-12-05T11:52:40.754Z,79.88
2023-12-05T11:55:10.170Z,80.41
2023-12-05T11:57:36.997Z,80.74
2023-12-05T12:00:04.982Z,80.16
2023-12-05T12:02:31.541Z,79.35
2023-12-05T12:05:10.655Z,80.20
2023-12-05T12:07:49.420Z,80.77
2023-12-05T12:10:17.654Z,80.74
2023-12-05T12:12:46.201Z,79.89
2023-12-05T12:15:17.147Z,80.61
2023-12-05T12:17:45.402Z,79.35
2023-12-05T12:20:16.683Z,79.37
2023-12-05T12:22:44.825Z,80.40
2023-12-05T12:25:15.401Z,80.99
2023-12-05T12:27:42.966Z,81.07
2023-12-05T12:30:14.884Z,80.42
2023-12-05T12:32:57.125Z,79.65
2023-12-05T12:35:24.684Z,79.95
2023-12-05T12:37:53.399Z,80.56
2023-12-05T12:40:20.697Z,80.40
2023-12-05T12:42:51.263Z,80.02
2023-12-05T12:45:18.070Z,80.19
2023-12-05T12:47:44.835Z,80.28
2023-12-05T12:50:12.959Z,80.79
2023-12-05T12:52:39.654Z,79.66
2023-12-05T12:55:08.080Z,80.28
2023-12-05T12:57:37.945Z,80.82
2023-12-05T13:00:30.765Z,80.61
2023-12-05T13:02:59.566Z,79.35
2023-12-05T13:05:33.390Z,80.79
2023-12-05T13:08:01.222Z,80.22
2023-12-05T13:10:29.300Z,80.24
2023-12-05T13:12:56.263Z,80.65
2023-12-05T13:15:30.356Z,79.98
2023-12-05T13:18:05.457Z,79.80
2023-12-05T13:20:33.091Z,80.16
2023-12-05T13:23:01.567Z,79.59
2023-12-05T13:25:35.627Z,80.12
2023-12-05T13:28:10.285Z,80.91
2023-12-05T13:30:37.132Z,80.04
2023-12-05T13:33:04.968Z,80.34
2023-12-05T13:35:31.769Z,79.88
2023-12-05T13:37:58.436Z,79.94
2023-12-05T13:40:25.104Z,80.66
2023-12-05T13:42:52.239Z,80.72
2023-12-05T13:45:21.173Z,79.46
2023-12-05T13:47:48.456Z,80.83
2023-12-05T13:50:15.159Z,80.22
2023-12-05T13:52:41.791Z,79.75
2023-12-05T13:55:08.894Z,79.68
2023-12-05T13:57:35.552Z,80.08
2023-12-05T14:00:02.208Z,80.93
2023-12-05T14:02:29.359Z,79.94
2023-12-05T14:04:56.173Z,80.58
2023-12-05T14:07:27.188Z,80.19
2023-12-05T14:09:54.537Z,80.77
2023-12-05T14:12:21.182Z,80.68
2023-12-05T14:14:47.925Z,79.35
2023-12-05T14:17:15.676Z,79.36
2023-12-05T14:19:42.568Z,79.99
2023-12-05T14:22:09.325Z,79.28
2023-12-05T14:24:36.405Z,80.14
2023-12-05T14:27:04.158Z,79.86
2023-12-05T14:29:30.775Z,80.23
2023-12-05T14:31:57.448Z,80.03
2023-12-05T14:34:24.238Z,80.06
2023-12-05T14:36:50.930Z,80.41
2023-12-05T14:39:18.674Z,80.11
2023-12-05T14:41:45.683Z,80.62
2023-12-05T14:44:13.465Z,80.39
2023-12-05T14:46:40.087Z,79.85
2023-12-05T14:49:06.851Z,80.04
2023-12-05T14:51:33.785Z,80.13
2023-12-05T14:54:00.556Z,79.75
2023-12-05T14:56:27.144Z,79.82
2023-12-05T14:58:53.924Z,79.51
2023-12-05T15:01:20.792Z,78.99
2023-12-05T15:03:47.621Z,79.47
2023-12-05T15:06:14.560Z,80.14
2023-12-05T15:08:41.158Z,79.99
2023-12-05T15:11:07.805Z,79.07
2023-12-05T15:13:34.414Z,79.48
2023-12-05T15:16:01.139Z,80.08
2023-12-05T15:18:28.737Z,80.29
2023-12-05T15:20:55.473Z,80.13
2023-12-05T15:23:22.411Z,79.49
2023-12-05T15:25:49.052Z,79.79
2023-12-05T15:28:17.999Z,79.07
2023-12-05T15:30:44.768Z,78.95
2023-12-05T15:33:14.588Z,80.37
2023-12-05T15:35:41.944Z,79.31
2023-12-05T15:38:08.564Z,79.55
2023-12-05T15:40:35.186Z,79.28
2023-12-05T15:43:01.904Z,79.82
2023-12-05T15:45:28.578Z,79.06
2023-12-05T15:47:55.259Z,79.79
2023-12-05T15:50:22.073Z,79.71
2023-12-05T15:52:48.890Z,80.07
2023-12-05T15:55:15.688Z,79.71
2023-12-05T15:57:45.825Z,78.91
2023-12-05T16:00:13.483Z,78.94
2023-12-05T16:02:42.245Z,79.17
2023-12-05T16:05:09.383Z,78.94
2023-12-05T16:07:36.020Z,79.52
2023-12-05T16:10:02.964Z,79.40
2023-12-05T16:12:29.843Z,79.16
2023-12-05T16:14:56.495Z,79.53
2023-12-05T16:17:23.827Z,79.92
2023-12-05T16:19:50.528Z,79.88
2023-12-05T16:22:17.268Z,79.04
2023-12-05T16:24:44.291Z,79.31
2023-12-05T16:27:11.019Z,79.32
2023-12-05T16:29:37.665Z,78.95
2023-12-05T16:32:05.448Z,78.97
2023-12-05T16:34:32.181Z,78.59
2023-12-05T16:36:58.944Z,79.30
2023-12-05T16:39:25.567Z,78.78
2023-12-05T16:41:52.287Z,79.26
2023-12-05T16:44:20.735Z,78.78
2023-12-05T16:46:47.436Z,78.62
2023-12-05T16:49:14.179Z,79.40
2023-12-05T16:51:41.596Z,79.48
2023-12-05T16:54:08.223Z,78.61
2023-12-05T16:56:34.850Z,79.12
2023-12-05T16:59:02.095Z,79.12
2023-12-05T17:01:28.967Z,79.64
2023-12-05T17:03:55.984Z,78.82
2023-12-05T17:06:22.716Z,78.55
2023-12-05T17:08:49.312Z,79.21
2023-12-05T17:11:15.939Z,78.57
2023-12-05T17:13:43.336Z,79.40
2023-12-05T17:16:10.148Z,78.58
2023-12-05T17:18:37.284Z,78.64
2023-12-05T17:21:04.440Z,78.48
2023-12-05T17:23:32.243Z,79.40
2023-12-05T17:25:59.813Z,79.22
2023-12-05T17:28:26.430Z,79.16
2023-12-05T17:30:53.163Z,79.34
2023-12-05T17:33:19.875Z,78.75
2023-12-05T17:35:47.026Z,79.46
2023-12-05T17:38:15.802Z,78.46
2023-12-05T17:40:43.041Z,79.17
2023-12-05T17:43:09.785Z,79.17
2023-12-05T17:45:36.543Z,78.75
2023-12-05T17:48:03.239Z,79.26
2023-12-05T17:50:29.954Z,79.20
2023-12-05T17:52:56.817Z,78.29
2023-12-05T17:55:23.504Z,79.26
2023-12-05T17:57:50.435Z,79.00
2023-12-05T18:00:17.657Z,79.05
2023-12-05T18:02:44.559Z,78.69
2023-12-05T18:05:11.229Z,78.54
2023-12-05T18:07:53.910Z,78.99
2023-12-05T18:10:24.637Z,78.60
2023-12-05T18:12:51.323Z,78.84
2023-12-05T18:15:18.003Z,78.90
2023-12-05T18:17:44.732Z,78.93
2023-12-05T18:20:11.870Z,78.83
2023-12-05T18:22:38.529Z,78.44
2023-12-05T18:25:07.453Z,78.25
2023-12-05T18:27:34.647Z,78.74
2023-12-05T18:30:01.487Z,78.67
2023-12-05T18:32:28.784Z,78.65
2023-12-05T18:34:55.949Z,78.12
2023-12-05T18:37:23.497Z,78.18
2023-12-05T18:39:50.578Z,78.31
2023-12-05T18:42:17.382Z,78.28
2023-12-05T18:44:44.462Z,78.25
2023-12-05T18:47:11.064Z,78.76
2023-12-05T18:49:37.876Z,78.40
2023-12-05T18:52:05.090Z,78.73
2023-12-05T18:54:31.809Z,78.91
2023-12-05T18:56:58.648Z,78.60
2023-12-05T18:59:25.230Z,78.33
2023-12-05T19:01:52.232Z,78.83
2023-12-05T19:04:19.045Z,79.02
2023-12-05T19:06:45.808Z,78.37
2023-12-05T19:09:13.644Z,78.26
2023-12-05T19:11:40.275Z,78.77
2023-12-05T19:14:07.316Z,78.80
2023-12-05T19:16:35.449Z,78.52
2023-12-05T19:19:02.970Z,78.54
2023-12-05T19:21:30.920Z,78.39
2023-12-05T19:23:59.938Z,78.52
2023-12-05T19:26:27.975Z,78.27
2023-12-05T19:28:57.744Z,78.26
2023-12-05T19:31:24.940Z,78.53
2023-12-05T19:33:51.718Z,78.16
2023-12-05T19:36:18.423Z,78.83
2023-12-05T19:38:45.065Z,78.63
2023-12-05T19:41:11.697Z,78.38
2023-12-05T19:43:38.387Z,78.78
2023-12-05T19:46:05.318Z,78.72
2023-12-05T19:48:33.268Z,78.48
2023-12-05T19:51:00.498Z,78.71
2023-12-05T19:53:28.194Z,78.32
2023-12-05T19:55:56.143Z,78.50
2023-12-05T19:58:22.995Z,78.54
2023-12-05T20:00:49.779Z,78.90
2023-12-05T20:03:19.745Z,78.72
2023-12-05T20:05:48.921Z,78.73
2023-12-05T20:08:16.939Z,79.09
2023-12-05T20:10:44.393Z,79.04
2023-12-05T20:13:11.289Z,79.14
2023-12-05T20:15:38.991Z,78.42
2023-12-05T20:18:05.951Z,79.41
2023-12-05T20:20:32.839Z,78.41
2023-12-05T20:23:00.384Z,78.54
2023-12-05T20:25:27.158Z,78.60
2023-12-05T20:27:53.976Z,79.09
2023-12-05T20:30:20.847Z,78.64
2023-12-05T20:32:47.748Z,78.37
2023-12-05T20:35:14.432Z,78.78
2023-12-05T20:37:42.410Z,78.73
2023-12-05T20:40:09.817Z,78.27
2023-12-05T20:42:37.072Z,78.27
2023-12-05T20:45:04.890Z,78.89
2023-12-05T20:47:31.800Z,79.17
2023-12-05T20:49:58.454Z,79.25
2023-12-05T20:52:25.597Z,78.42
2023-12-05T20:54:52.389Z,79.12
2023-12-05T20:57:19.281Z,78.88
2023-12-05T20:59:46.386Z,78.89
2023-12-05T21:02:12.984Z,78.37
2023-12-05T21:04:39.820Z,78.42
2023-12-05T21:07:06.652Z,78.40
2023-12-05T21:09:33.396Z,78.79
2023-12-05T21:12:00.300Z,78.63
2023-12-05T21:14:27.105Z,78.53
2023-12-05T21:16:54.619Z,79.29
2023-12-05T21:19:21.391Z,78.52
2023-12-05T21:21:48.147Z,79.52
2023-12-05T21:24:14.872Z,79.03
2023-12-05T21:26:41.660Z,78.72
2023-12-05T21:29:08.427Z,78.72
2023-12-05T21:31:35.081Z,79.31
2023-12-05T21:34:01.954Z,79.48
2023-12-05T21:36:28.691Z,78.41
2023-12-05T21:38:58.699Z,78.81
2023-12-05T21:41:26.502Z,79.38
2023-12-05T21:43:53.152Z,78.83
2023-12-05T21:46:29.854Z,79.11
2023-12-05T21:48:57.604Z,78.04
2023-12-05T21:51:24.490Z,79.43
2023-12-05T21:53:51.802Z,78.16
2023-12-05T21:56:18.847Z,79.50
2023-12-05T21:58:45.562Z,79.02
2023-12-05T22:01:13.522Z,79.63
2023-12-05T22:03:40.972Z,78.65
2023-12-05T22:06:08.691Z,79.18
2023-12-05T22:08:35.350Z,78.25
2023-12-05T22:11:03.471Z,78.33
2023-12-05T22:13:33.484Z,78.10
2023-12-05T22:16:01.674Z,78.70
2023-12-05T22:18:29.734Z,78.83
2023-12-05T22:20:57.490Z,79.20
2023-12-05T22:23:25.691Z,79.05
2023-12-05T22:25:53.226Z,79.16
2023-12-05T22:28:19.917Z,78.58
2023-12-05T22:30:46.561Z,79.25
2023-12-05T22:33:14.168Z,78.96
2023-12-05T22:35:43.139Z,78.18
2023-12-05T22:38:09.765Z,79.20
2023-12-05T22:40:36.595Z,78.63
2023-12-05T22:43:03.508Z,78.65
2023-12-05T22:45:30.186Z,79.30
2023-12-05T22:47:56.845Z,78.89
2023-12-05T22:50:23.642Z,79.38
2023-12-05T22:52:54.159Z,79.15
2023-12-05T22:55:21.657Z,78.20
2023-12-05T22:57:50.399Z,78.73
2023-12-05T23:00:25.349Z,79.22
2023-12-05T23:02:57.185Z,78.32
2023-12-05T23:05:24.423Z,79.08
2023-12-05T23:07:52.068Z,79.51
2023-12-05T23:10:19.504Z,79.44
2023-12-05T23:12:46.337Z,78.66
2023-12-05T23:15:13.251Z,78.83
2023-12-05T23:17:40.520Z,78.99
2023-12-05T23:20:08.362Z,78.68
2023-12-05T23:22:35.103Z,78.36
2023-12-05T23:25:02.024Z,78.93
2023-12-05T23:27:29.065Z,78.86
2023-12-05T23:29:55.792Z,78.93
2023-12-05T23:32:22.659Z,78.23
2023-12-05T23:34:49.367Z,78.88
2023-12-05T23:37:16.302Z,79.26
2023-12-05T23:39:43.065Z,79.04
2023-12-05T23:42:09.816Z,78.30
2023-12-05T23:44:36.463Z,79.66
2023-12-05T23:47:03.371Z,79.18
2023-12-05T23:49:30.224Z,78.95
2023-12-05T23:51:56.980Z,79.07
2023-12-05T23:54:23.595Z,78.25
2023-12-05T23:56:50.593Z,78.96
2023-12-05T23:59:17.240Z,78.87
